sensor_id;sensor_type;location;lat;lon;timestamp;P1;durP1;ratioP1;P2;durP2;ratioP2
45848;SDS011;31567;54.600;9.842;2023-12-14T00:01:07;11.07;;;7.38;;
45848;SDS011;31567;54.600;9.842;2023-12-14T00:04:49;13.65;;;7.20;;
45848;SDS011;31567;54.600;9.842;2023-12-14T00:08:28;13.93;;;7.97;;
45848;SDS011;31567;54.600;9.842;2023-12-14T00:12:08;12.65;;;7.57;;
45848;SDS011;31567;54.600;9.842;2023-12-14T00:15:47;9.55;;;7.38;;
45848;SDS011;31567;54.600;9.842;2023-12-14T00:19:29;12.00;;;8.80;;
45848;SDS011;31567;54.600;9.842;2023-12-14T00:36:56;16.05;;;7.45;;
45848;SDS011;31567;54.600;9.842;2023-12-14T00:40:36;9.90;;;6.93;;
45848;SDS011;31567;54.600;9.842;2023-12-14T00:44:15;9.32;;;6.97;;
45848;SDS011;31567;54.600;9.842;2023-12-14T00:47:55;12.85;;;8.63;;
45848;SDS011;31567;54.600;9.842;2023-12-14T00:51:34;12.48;;;7.97;;
45848;SDS011;31567;54.600;9.842;2023-12-14T00:55:14;12.70;;;7.63;;
45848;SDS011;31567;54.600;9.842;2023-12-14T00:58:53;11.18;;;7.45;;
45848;SDS011;31567;54.600;9.842;2023-12-14T01:02:33;9.45;;;7.18;;
45848;SDS011;31567;54.600;9.842;2023-12-14T01:06:12;9.60;;;7.43;;
45848;SDS011;31567;54.600;9.842;2023-12-14T01:09:52;11.73;;;7.15;;
45848;SDS011;31567;54.600;9.842;2023-12-14T01:13:32;12.98;;;7.50;;
45848;SDS011;31567;54.600;9.842;2023-12-14T01:17:11;9.55;;;7.07;;
45848;SDS011;31567;54.600;9.842;2023-12-14T01:25:27;10.77;;;6.90;;
45848;SDS011;31567;54.600;9.842;2023-12-14T01:29:06;11.18;;;7.18;;
45848;SDS011;31567;54.600;9.842;2023-12-14T01:32:46;11.43;;;6.90;;
45848;SDS011;31567;54.600;9.842;2023-12-14T01:36:26;8.15;;;4.97;;
45848;SDS011;31567;54.600;9.842;2023-12-14T01:40:05;10.25;;;6.50;;
45848;SDS011;31567;54.600;9.842;2023-12-14T01:43:45;12.02;;;6.85;;
45848;SDS011;31567;54.600;9.842;2023-12-14T01:47:25;9.70;;;6.20;;
45848;SDS011;31567;54.600;9.842;2023-12-14T01:51:04;11.50;;;6.60;;
45848;SDS011;31567;54.600;9.842;2023-12-14T01:54:44;8.48;;;5.90;;
45848;SDS011;31567;54.600;9.842;2023-12-14T01:58:23;10.15;;;6.70;;
45848;SDS011;31567;54.600;9.842;2023-12-14T02:02:04;8.38;;;6.57;;
45848;SDS011;31567;54.600;9.842;2023-12-14T02:05:44;9.60;;;5.90;;
45848;SDS011;31567;54.600;9.842;2023-12-14T02:09:24;8.15;;;5.95;;
45848;SDS011;31567;54.600;9.842;2023-12-14T02:13:04;9.65;;;6.15;;
45848;SDS011;31567;54.600;9.842;2023-12-14T02:16:43;7.45;;;5.78;;
45848;SDS011;31567;54.600;9.842;2023-12-14T02:20:23;6.20;;;5.30;;
45848;SDS011;31567;54.600;9.842;2023-12-14T02:24:02;8.15;;;5.68;;
45848;SDS011;31567;54.600;9.842;2023-12-14T02:27:42;10.20;;;5.72;;
45848;SDS011;31567;54.600;9.842;2023-12-14T02:31:22;10.30;;;6.40;;
45848;SDS011;31567;54.600;9.842;2023-12-14T02:35:02;9.73;;;5.55;;
45848;SDS011;31567;54.600;9.842;2023-12-14T02:38:42;7.22;;;5.65;;
45848;SDS011;31567;54.600;9.842;2023-12-14T02:42:22;10.10;;;6.03;;
45848;SDS011;31567;54.600;9.842;2023-12-14T02:46:01;12.10;;;6.13;;
45848;SDS011;31567;54.600;9.842;2023-12-14T02:49:41;10.48;;;6.97;;
45848;SDS011;31567;54.600;9.842;2023-12-14T02:53:21;7.38;;;6.38;;
45848;SDS011;31567;54.600;9.842;2023-12-14T02:57:01;9.63;;;6.40;;
45848;SDS011;31567;54.600;9.842;2023-12-14T03:00:40;9.30;;;6.85;;
45848;SDS011;31567;54.600;9.842;2023-12-14T03:04:20;9.13;;;6.10;;
45848;SDS011;31567;54.600;9.842;2023-12-14T03:07:59;9.65;;;6.43;;
45848;SDS011;31567;54.600;9.842;2023-12-14T03:11:39;8.15;;;6.18;;
45848;SDS011;31567;54.600;9.842;2023-12-14T03:15:18;8.00;;;6.35;;
45848;SDS011;31567;54.600;9.842;2023-12-14T03:18:58;8.73;;;6.45;;
45848;SDS011;31567;54.600;9.842;2023-12-14T03:22:37;7.93;;;5.97;;
45848;SDS011;31567;54.600;9.842;2023-12-14T03:26:17;9.68;;;5.90;;
45848;SDS011;31567;54.600;9.842;2023-12-14T03:29:57;11.25;;;5.88;;
45848;SDS011;31567;54.600;9.842;2023-12-14T03:33:36;7.70;;;6.10;;
45848;SDS011;31567;54.600;9.842;2023-12-14T03:37:16;7.25;;;5.53;;
45848;SDS011;31567;54.600;9.842;2023-12-14T03:40:55;9.05;;;5.97;;
45848;SDS011;31567;54.600;9.842;2023-12-14T03:44:35;8.90;;;6.10;;
45848;SDS011;31567;54.600;9.842;2023-12-14T03:48:14;8.45;;;5.93;;
45848;SDS011;31567;54.600;9.842;2023-12-14T03:51:54;13.25;;;6.75;;
45848;SDS011;31567;54.600;9.842;2023-12-14T03:55:33;8.45;;;5.82;;
45848;SDS011;31567;54.600;9.842;2023-12-14T03:59:13;9.52;;;6.57;;
45848;SDS011;31567;54.600;9.842;2023-12-14T04:02:52;9.95;;;5.95;;
45848;SDS011;31567;54.600;9.842;2023-12-14T04:06:32;8.93;;;6.47;;
45848;SDS011;31567;54.600;9.842;2023-12-14T04:10:12;8.52;;;6.25;;
45848;SDS011;31567;54.600;9.842;2023-12-14T04:13:52;9.07;;;6.50;;
45848;SDS011;31567;54.600;9.842;2023-12-14T04:17:32;8.52;;;6.32;;
45848;SDS011;31567;54.600;9.842;2023-12-14T04:21:12;9.65;;;6.07;;
45848;SDS011;31567;54.600;9.842;2023-12-14T04:24:52;10.77;;;6.70;;
45848;SDS011;31567;54.600;9.842;2023-12-14T04:28:32;10.88;;;6.63;;
45848;SDS011;31567;54.600;9.842;2023-12-14T04:32:11;7.30;;;5.97;;
45848;SDS011;31567;54.600;9.842;2023-12-14T04:35:51;9.98;;;6.30;;
45848;SDS011;31567;54.600;9.842;2023-12-14T04:39:31;8.63;;;6.30;;
45848;SDS011;31567;54.600;9.842;2023-12-14T04:43:11;10.55;;;6.63;;
45848;SDS011;31567;54.600;9.842;2023-12-14T04:46:51;8.55;;;6.18;;
45848;SDS011;31567;54.600;9.842;2023-12-14T04:50:31;8.73;;;6.47;;
45848;SDS011;31567;54.600;9.842;2023-12-14T04:54:10;8.73;;;5.95;;
45848;SDS011;31567;54.600;9.842;2023-12-14T04:57:50;8.60;;;6.00;;
45848;SDS011;31567;54.600;9.842;2023-12-14T05:01:30;9.32;;;6.05;;
45848;SDS011;31567;54.600;9.842;2023-12-14T05:05:09;7.57;;;5.97;;
45848;SDS011;31567;54.600;9.842;2023-12-14T05:08:49;6.65;;;5.82;;
45848;SDS011;31567;54.600;9.842;2023-12-14T05:12:29;8.23;;;6.20;;
45848;SDS011;31567;54.600;9.842;2023-12-14T05:16:14;9.40;;;6.38;;
45848;SDS011;31567;54.600;9.842;2023-12-14T05:19:53;9.30;;;6.03;;
45848;SDS011;31567;54.600;9.842;2023-12-14T05:23:33;10.18;;;6.50;;
45848;SDS011;31567;54.600;9.842;2023-12-14T05:27:13;9.85;;;6.57;;
45848;SDS011;31567;54.600;9.842;2023-12-14T05:30:53;11.02;;;6.47;;
45848;SDS011;31567;54.600;9.842;2023-12-14T05:34:32;11.48;;;6.32;;
45848;SDS011;31567;54.600;9.842;2023-12-14T05:38:12;9.98;;;6.03;;
45848;SDS011;31567;54.600;9.842;2023-12-14T05:41:51;8.30;;;6.00;;
45848;SDS011;31567;54.600;9.842;2023-12-14T05:45:31;8.85;;;6.18;;
45848;SDS011;31567;54.600;9.842;2023-12-14T05:49:10;8.82;;;6.05;;
45848;SDS011;31567;54.600;9.842;2023-12-14T05:52:50;7.78;;;6.05;;
45848;SDS011;31567;54.600;9.842;2023-12-14T05:56:30;7.45;;;6.07;;
45848;SDS011;31567;54.600;9.842;2023-12-14T06:00:09;10.77;;;6.18;;
45848;SDS011;31567;54.600;9.842;2023-12-14T06:03:49;8.18;;;5.70;;
45848;SDS011;31567;54.600;9.842;2023-12-14T06:07:29;7.68;;;6.03;;
45848;SDS011;31567;54.600;9.842;2023-12-14T06:11:08;7.70;;;5.60;;
45848;SDS011;31567;54.600;9.842;2023-12-14T06:14:48;9.40;;;5.90;;
45848;SDS011;31567;54.600;9.842;2023-12-14T06:18:29;8.50;;;5.80;;
45848;SDS011;31567;54.600;9.842;2023-12-14T06:22:08;8.57;;;6.03;;
45848;SDS011;31567;54.600;9.842;2023-12-14T06:25:48;7.05;;;5.28;;
45848;SDS011;31567;54.600;9.842;2023-12-14T06:29:28;8.50;;;5.25;;
45848;SDS011;31567;54.600;9.842;2023-12-14T06:33:07;8.15;;;5.85;;
45848;SDS011;31567;54.600;9.842;2023-12-14T06:36:47;6.47;;;5.50;;
45848;SDS011;31567;54.600;9.842;2023-12-14T06:40:26;7.88;;;5.47;;
45848;SDS011;31567;54.600;9.842;2023-12-14T06:44:06;7.20;;;5.68;;
45848;SDS011;31567;54.600;9.842;2023-12-14T06:47:48;6.15;;;5.38;;
45848;SDS011;31567;54.600;9.842;2023-12-14T06:51:28;7.95;;;5.18;;
45848;SDS011;31567;54.600;9.842;2023-12-14T06:55:08;7.95;;;4.95;;
45848;SDS011;31567;54.600;9.842;2023-12-14T06:58:48;7.57;;;5.53;;
45848;SDS011;31567;54.600;9.842;2023-12-14T07:02:28;7.70;;;5.32;;
45848;SDS011;31567;54.600;9.842;2023-12-14T07:06:08;7.10;;;5.22;;
45848;SDS011;31567;54.600;9.842;2023-12-14T07:09:51;7.30;;;5.57;;
45848;SDS011;31567;54.600;9.842;2023-12-14T07:13:31;7.53;;;5.05;;
45848;SDS011;31567;54.600;9.842;2023-12-14T07:17:10;6.25;;;4.45;;
45848;SDS011;31567;54.600;9.842;2023-12-14T07:20:50;6.30;;;5.18;;
45848;SDS011;31567;54.600;9.842;2023-12-14T07:24:29;10.18;;;5.65;;
45848;SDS011;31567;54.600;9.842;2023-12-14T07:28:09;7.70;;;4.50;;
45848;SDS011;31567;54.600;9.842;2023-12-14T07:31:49;8.07;;;5.43;;
45848;SDS011;31567;54.600;9.842;2023-12-14T07:35:29;4.28;;;3.88;;
45848;SDS011;31567;54.600;9.842;2023-12-14T07:39:08;5.30;;;4.80;;
45848;SDS011;31567;54.600;9.842;2023-12-14T07:42:48;7.68;;;4.70;;
45848;SDS011;31567;54.600;9.842;2023-12-14T07:46:27;7.30;;;5.03;;
45848;SDS011;31567;54.600;9.842;2023-12-14T07:50:08;12.30;;;5.25;;
45848;SDS011;31567;54.600;9.842;2023-12-14T07:53:48;6.72;;;5.75;;
45848;SDS011;31567;54.600;9.842;2023-12-14T07:57:27;6.05;;;4.80;;
45848;SDS011;31567;54.600;9.842;2023-12-14T08:01:07;7.68;;;5.30;;
45848;SDS011;31567;54.600;9.842;2023-12-14T08:04:47;9.25;;;5.50;;
45848;SDS011;31567;54.600;9.842;2023-12-14T08:08:26;8.38;;;4.80;;
45848;SDS011;31567;54.600;9.842;2023-12-14T08:12:06;6.75;;;4.43;;
45848;SDS011;31567;54.600;9.842;2023-12-14T08:15:46;5.50;;;4.90;;
45848;SDS011;31567;54.600;9.842;2023-12-14T08:19:25;7.10;;;4.65;;
45848;SDS011;31567;54.600;9.842;2023-12-14T08:23:05;6.55;;;4.45;;
45848;SDS011;31567;54.600;9.842;2023-12-14T08:26:44;6.53;;;4.40;;
45848;SDS011;31567;54.600;9.842;2023-12-14T08:30:24;5.72;;;4.57;;
45848;SDS011;31567;54.600;9.842;2023-12-14T08:34:03;8.40;;;4.85;;
45848;SDS011;31567;54.600;9.842;2023-12-14T08:37:43;6.22;;;4.60;;
45848;SDS011;31567;54.600;9.842;2023-12-14T08:41:23;8.57;;;5.32;;
45848;SDS011;31567;54.600;9.842;2023-12-14T08:45:02;7.28;;;5.03;;
45848;SDS011;31567;54.600;9.842;2023-12-14T08:48:42;6.90;;;5.82;;
45848;SDS011;31567;54.600;9.842;2023-12-14T08:52:22;6.88;;;4.95;;
45848;SDS011;31567;54.600;9.842;2023-12-14T08:56:01;6.20;;;3.72;;
45848;SDS011;31567;54.600;9.842;2023-12-14T08:59:42;5.03;;;3.67;;
45848;SDS011;31567;54.600;9.842;2023-12-14T09:03:21;5.15;;;3.58;;
45848;SDS011;31567;54.600;9.842;2023-12-14T09:07:01;5.25;;;3.97;;
45848;SDS011;31567;54.600;9.842;2023-12-14T09:10:43;5.65;;;3.63;;
45848;SDS011;31567;54.600;9.842;2023-12-14T09:14:23;5.53;;;4.28;;
45848;SDS011;31567;54.600;9.842;2023-12-14T09:18:03;5.90;;;4.43;;
45848;SDS011;31567;54.600;9.842;2023-12-14T09:21:42;11.43;;;4.90;;
45848;SDS011;31567;54.600;9.842;2023-12-14T09:25:22;4.13;;;3.60;;
45848;SDS011;31567;54.600;9.842;2023-12-14T09:29:02;5.60;;;3.88;;
45848;SDS011;31567;54.600;9.842;2023-12-14T09:32:42;4.95;;;3.90;;
45848;SDS011;31567;54.600;9.842;2023-12-14T09:36:22;7.72;;;4.70;;
45848;SDS011;31567;54.600;9.842;2023-12-14T09:40:01;8.70;;;4.32;;
45848;SDS011;31567;54.600;9.842;2023-12-14T09:43:41;7.00;;;4.60;;
45848;SDS011;31567;54.600;9.842;2023-12-14T09:47:22;6.75;;;4.75;;
45848;SDS011;31567;54.600;9.842;2023-12-14T09:51:02;5.78;;;4.53;;
45848;SDS011;31567;54.600;9.842;2023-12-14T09:54:42;6.20;;;4.00;;
45848;SDS011;31567;54.600;9.842;2023-12-14T09:58:22;9.07;;;4.97;;
45848;SDS011;31567;54.600;9.842;2023-12-14T10:02:11;4.95;;;3.72;;
45848;SDS011;31567;54.600;9.842;2023-12-14T10:05:53;7.00;;;4.57;;
45848;SDS011;31567;54.600;9.842;2023-12-14T10:09:34;5.63;;;4.03;;
45848;SDS011;31567;54.600;9.842;2023-12-14T10:13:16;5.47;;;4.30;;
45848;SDS011;31567;54.600;9.842;2023-12-14T10:16:55;7.38;;;5.03;;
45848;SDS011;31567;54.600;9.842;2023-12-14T10:20:35;6.93;;;4.50;;
45848;SDS011;31567;54.600;9.842;2023-12-14T10:24:16;9.82;;;5.80;;
45848;SDS011;31567;54.600;9.842;2023-12-14T10:27:57;6.60;;;4.68;;
45848;SDS011;31567;54.600;9.842;2023-12-14T10:31:37;5.75;;;4.57;;
45848;SDS011;31567;54.600;9.842;2023-12-14T10:35:16;6.45;;;4.63;;
45848;SDS011;31567;54.600;9.842;2023-12-14T10:38:58;4.93;;;4.30;;
45848;SDS011;31567;54.600;9.842;2023-12-14T10:42:41;5.90;;;4.53;;
45848;SDS011;31567;54.600;9.842;2023-12-14T10:46:25;5.22;;;4.10;;
45848;SDS011;31567;54.600;9.842;2023-12-14T10:50:06;4.80;;;3.83;;
45848;SDS011;31567;54.600;9.842;2023-12-14T10:53:46;4.07;;;3.65;;
45848;SDS011;31567;54.600;9.842;2023-12-14T10:57:27;5.70;;;3.80;;
45848;SDS011;31567;54.600;9.842;2023-12-14T11:01:08;6.28;;;4.45;;
45848;SDS011;31567;54.600;9.842;2023-12-14T11:05:01;4.50;;;3.95;;
45848;SDS011;31567;54.600;9.842;2023-12-14T11:08:48;6.05;;;4.25;;
45848;SDS011;31567;54.600;9.842;2023-12-14T11:12:27;4.70;;;3.83;;
45848;SDS011;31567;54.600;9.842;2023-12-14T11:16:07;7.20;;;4.90;;
45848;SDS011;31567;54.600;9.842;2023-12-14T11:19:47;5.63;;;4.15;;
45848;SDS011;31567;54.600;9.842;2023-12-14T11:27:11;5.30;;;4.80;;
45848;SDS011;31567;54.600;9.842;2023-12-14T11:30:50;5.75;;;4.38;;
45848;SDS011;31567;54.600;9.842;2023-12-14T11:34:31;5.43;;;3.80;;
45848;SDS011;31567;54.600;9.842;2023-12-14T11:38:10;5.55;;;4.22;;
45848;SDS011;31567;54.600;9.842;2023-12-14T11:42:01;6.18;;;4.18;;
45848;SDS011;31567;54.600;9.842;2023-12-14T11:45:42;6.68;;;3.78;;
45848;SDS011;31567;54.600;9.842;2023-12-14T11:49:23;5.10;;;3.50;;
45848;SDS011;31567;54.600;9.842;2023-12-14T11:53:05;4.15;;;3.75;;
45848;SDS011;31567;54.600;9.842;2023-12-14T11:56:48;4.40;;;4.00;;
45848;SDS011;31567;54.600;9.842;2023-12-14T12:00:29;4.15;;;3.72;;
45848;SDS011;31567;54.600;9.842;2023-12-14T12:04:09;5.50;;;3.97;;
45848;SDS011;31567;54.600;9.842;2023-12-14T12:07:56;4.70;;;3.70;;
45848;SDS011;31567;54.600;9.842;2023-12-14T12:11:36;5.18;;;3.67;;
45848;SDS011;31567;54.600;9.842;2023-12-14T12:15:16;4.95;;;3.28;;
45848;SDS011;31567;54.600;9.842;2023-12-14T12:18:57;7.00;;;4.80;;
45848;SDS011;31567;54.600;9.842;2023-12-14T12:22:37;5.50;;;4.60;;
45848;SDS011;31567;54.600;9.842;2023-12-14T12:26:16;5.65;;;4.50;;
45848;SDS011;31567;54.600;9.842;2023-12-14T12:29:56;7.50;;;4.15;;
45848;SDS011;31567;54.600;9.842;2023-12-14T12:33:36;7.57;;;4.72;;
45848;SDS011;31567;54.600;9.842;2023-12-14T12:37:16;6.30;;;4.07;;
45848;SDS011;31567;54.600;9.842;2023-12-14T12:40:56;4.47;;;3.90;;
45848;SDS011;31567;54.600;9.842;2023-12-14T12:44:35;5.43;;;4.53;;
45848;SDS011;31567;54.600;9.842;2023-12-14T12:48:15;4.40;;;3.67;;
45848;SDS011;31567;54.600;9.842;2023-12-14T12:51:55;4.45;;;4.05;;
45848;SDS011;31567;54.600;9.842;2023-12-14T12:55:35;3.53;;;3.22;;
45848;SDS011;31567;54.600;9.842;2023-12-14T12:59:14;3.65;;;2.80;;
45848;SDS011;31567;54.600;9.842;2023-12-14T13:02:54;3.30;;;3.00;;
45848;SDS011;31567;54.600;9.842;2023-12-14T13:06:33;2.88;;;2.50;;
45848;SDS011;31567;54.600;9.842;2023-12-14T13:10:13;3.88;;;2.38;;
45848;SDS011;31567;54.600;9.842;2023-12-14T13:13:53;1.80;;;1.67;;
45848;SDS011;31567;54.600;9.842;2023-12-14T13:17:33;3.15;;;2.03;;
45848;SDS011;31567;54.600;9.842;2023-12-14T13:21:13;2.30;;;2.10;;
45848;SDS011;31567;54.600;9.842;2023-12-14T13:24:52;2.75;;;2.55;;
45848;SDS011;31567;54.600;9.842;2023-12-14T13:28:32;2.67;;;2.20;;
45848;SDS011;31567;54.600;9.842;2023-12-14T13:32:11;3.65;;;2.92;;
45848;SDS011;31567;54.600;9.842;2023-12-14T13:35:51;3.13;;;2.40;;
45848;SDS011;31567;54.600;9.842;2023-12-14T13:39:31;2.42;;;2.00;;
45848;SDS011;31567;54.600;9.842;2023-12-14T13:43:13;4.32;;;1.77;;
45848;SDS011;31567;54.600;9.842;2023-12-14T13:46:53;3.00;;;2.70;;
45848;SDS011;31567;54.600;9.842;2023-12-14T13:50:32;3.80;;;3.45;;
45848;SDS011;31567;54.600;9.842;2023-12-14T13:54:13;4.90;;;4.00;;
45848;SDS011;31567;54.600;9.842;2023-12-14T13:57:52;6.00;;;4.85;;
45848;SDS011;31567;54.600;9.842;2023-12-14T14:01:32;5.57;;;4.10;;
45848;SDS011;31567;54.600;9.842;2023-12-14T14:05:11;7.10;;;5.00;;
45848;SDS011;31567;54.600;9.842;2023-12-14T14:08:51;5.32;;;4.60;;
45848;SDS011;31567;54.600;9.842;2023-12-14T14:12:30;6.28;;;4.85;;
45848;SDS011;31567;54.600;9.842;2023-12-14T14:16:10;4.93;;;4.40;;
45848;SDS011;31567;54.600;9.842;2023-12-14T14:19:50;7.15;;;4.90;;
45848;SDS011;31567;54.600;9.842;2023-12-14T14:23:29;7.88;;;5.10;;
45848;SDS011;31567;54.600;9.842;2023-12-14T14:27:10;7.07;;;4.95;;
45848;SDS011;31567;54.600;9.842;2023-12-14T14:30:50;7.40;;;5.18;;
45848;SDS011;31567;54.600;9.842;2023-12-14T14:34:29;6.80;;;5.45;;
45848;SDS011;31567;54.600;9.842;2023-12-14T14:38:09;8.82;;;5.97;;
45848;SDS011;31567;54.600;9.842;2023-12-14T14:41:48;9.02;;;5.30;;
45848;SDS011;31567;54.600;9.842;2023-12-14T14:45:28;6.93;;;5.32;;
45848;SDS011;31567;54.600;9.842;2023-12-14T14:49:07;6.78;;;4.93;;
45848;SDS011;31567;54.600;9.842;2023-12-14T14:52:47;7.40;;;5.10;;
45848;SDS011;31567;54.600;9.842;2023-12-14T14:56:27;7.47;;;5.72;;
45848;SDS011;31567;54.600;9.842;2023-12-14T15:00:07;5.68;;;5.00;;
45848;SDS011;31567;54.600;9.842;2023-12-14T15:03:47;7.05;;;5.07;;
45848;SDS011;31567;54.600;9.842;2023-12-14T15:07:26;5.95;;;5.07;;
45848;SDS011;31567;54.600;9.842;2023-12-14T15:11:07;7.03;;;5.13;;
45848;SDS011;31567;54.600;9.842;2023-12-14T15:14:49;10.52;;;8.30;;
45848;SDS011;31567;54.600;9.842;2023-12-14T15:18:29;11.55;;;8.93;;
45848;SDS011;31567;54.600;9.842;2023-12-14T15:22:08;11.20;;;9.15;;
45848;SDS011;31567;54.600;9.842;2023-12-14T15:25:48;13.50;;;9.20;;
45848;SDS011;31567;54.600;9.842;2023-12-14T15:29:27;11.60;;;9.23;;
45848;SDS011;31567;54.600;9.842;2023-12-14T15:33:07;12.98;;;10.10;;
45848;SDS011;31567;54.600;9.842;2023-12-14T15:36:47;13.63;;;10.15;;
45848;SDS011;31567;54.600;9.842;2023-12-14T15:40:27;13.43;;;9.10;;
45848;SDS011;31567;54.600;9.842;2023-12-14T15:44:07;11.32;;;9.38;;
45848;SDS011;31567;54.600;9.842;2023-12-14T15:47:47;12.35;;;8.82;;
45848;SDS011;31567;54.600;9.842;2023-12-14T15:51:27;13.48;;;9.65;;
45848;SDS011;31567;54.600;9.842;2023-12-14T15:55:06;17.90;;;11.70;;
45848;SDS011;31567;54.600;9.842;2023-12-14T15:58:47;18.02;;;11.63;;
45848;SDS011;31567;54.600;9.842;2023-12-14T16:02:26;13.35;;;11.23;;
45848;SDS011;31567;54.600;9.842;2023-12-14T16:06:06;12.60;;;10.15;;
45848;SDS011;31567;54.600;9.842;2023-12-14T16:09:46;13.30;;;10.43;;
45848;SDS011;31567;54.600;9.842;2023-12-14T16:13:27;15.25;;;10.55;;
45848;SDS011;31567;54.600;9.842;2023-12-14T16:17:08;14.80;;;10.60;;
45848;SDS011;31567;54.600;9.842;2023-12-14T16:20:48;13.13;;;10.45;;
45848;SDS011;31567;54.600;9.842;2023-12-14T16:24:28;13.95;;;9.95;;
45848;SDS011;31567;54.600;9.842;2023-12-14T16:28:08;13.27;;;10.00;;
45848;SDS011;31567;54.600;9.842;2023-12-14T16:31:47;24.67;;;15.38;;
45848;SDS011;31567;54.600;9.842;2023-12-14T16:35:28;19.63;;;12.63;;
45848;SDS011;31567;54.600;9.842;2023-12-14T16:39:09;24.15;;;14.07;;
45848;SDS011;31567;54.600;9.842;2023-12-14T16:42:50;13.25;;;9.77;;
45848;SDS011;31567;54.600;9.842;2023-12-14T16:46:30;10.85;;;9.18;;
45848;SDS011;31567;54.600;9.842;2023-12-14T16:50:10;12.43;;;10.95;;
45848;SDS011;31567;54.600;9.842;2023-12-14T16:53:51;13.38;;;9.68;;
45848;SDS011;31567;54.600;9.842;2023-12-14T16:57:30;16.52;;;10.25;;
45848;SDS011;31567;54.600;9.842;2023-12-14T17:01:10;12.30;;;10.07;;
45848;SDS011;31567;54.600;9.842;2023-12-14T17:04:51;12.20;;;9.90;;
45848;SDS011;31567;54.600;9.842;2023-12-14T17:08:30;14.75;;;10.88;;
45848;SDS011;31567;54.600;9.842;2023-12-14T17:12:10;14.70;;;11.25;;
45848;SDS011;31567;54.600;9.842;2023-12-14T17:15:49;15.82;;;12.23;;
45848;SDS011;31567;54.600;9.842;2023-12-14T17:19:29;15.02;;;11.43;;
45848;SDS011;31567;54.600;9.842;2023-12-14T17:23:08;18.50;;;11.38;;
45848;SDS011;31567;54.600;9.842;2023-12-14T17:26:48;13.88;;;11.45;;
45848;SDS011;31567;54.600;9.842;2023-12-14T17:30:27;12.45;;;10.27;;
45848;SDS011;31567;54.600;9.842;2023-12-14T17:34:08;14.73;;;11.00;;
45848;SDS011;31567;54.600;9.842;2023-12-14T17:37:48;19.38;;;12.50;;
45848;SDS011;31567;54.600;9.842;2023-12-14T17:41:27;17.50;;;10.25;;
45848;SDS011;31567;54.600;9.842;2023-12-14T17:45:07;14.93;;;10.93;;
45848;SDS011;31567;54.600;9.842;2023-12-14T17:48:47;15.02;;;10.65;;
45848;SDS011;31567;54.600;9.842;2023-12-14T17:52:26;12.65;;;10.27;;
45848;SDS011;31567;54.600;9.842;2023-12-14T17:56:06;12.82;;;9.57;;
45848;SDS011;31567;54.600;9.842;2023-12-14T17:59:46;14.27;;;10.10;;
45848;SDS011;31567;54.600;9.842;2023-12-14T18:03:26;12.75;;;10.63;;
45848;SDS011;31567;54.600;9.842;2023-12-14T18:07:10;18.40;;;11.68;;
45848;SDS011;31567;54.600;9.842;2023-12-14T18:10:49;12.82;;;10.48;;
45848;SDS011;31567;54.600;9.842;2023-12-14T18:14:29;13.75;;;10.80;;
45848;SDS011;31567;54.600;9.842;2023-12-14T18:18:08;13.73;;;10.00;;
45848;SDS011;31567;54.600;9.842;2023-12-14T18:21:48;15.10;;;9.90;;
45848;SDS011;31567;54.600;9.842;2023-12-14T18:25:28;12.15;;;9.82;;
45848;SDS011;31567;54.600;9.842;2023-12-14T18:29:08;13.23;;;10.70;;
45848;SDS011;31567;54.600;9.842;2023-12-14T18:32:47;13.38;;;9.82;;
45848;SDS011;31567;54.600;9.842;2023-12-14T18:36:30;13.23;;;10.13;;
45848;SDS011;31567;54.600;9.842;2023-12-14T18:40:09;11.52;;;10.13;;
45848;SDS011;31567;54.600;9.842;2023-12-14T18:43:49;15.13;;;10.60;;
45848;SDS011;31567;54.600;9.842;2023-12-14T18:47:29;15.75;;;11.38;;
45848;SDS011;31567;54.600;9.842;2023-12-14T18:51:08;13.80;;;10.32;;
45848;SDS011;31567;54.600;9.842;2023-12-14T18:54:48;12.93;;;10.70;;
45848;SDS011;31567;54.600;9.842;2023-12-14T18:58:28;12.75;;;10.02;;
45848;SDS011;31567;54.600;9.842;2023-12-14T19:02:07;14.93;;;11.85;;
45848;SDS011;31567;54.600;9.842;2023-12-14T19:05:47;13.57;;;10.68;;
45848;SDS011;31567;54.600;9.842;2023-12-14T19:09:26;13.75;;;11.57;;
45848;SDS011;31567;54.600;9.842;2023-12-14T19:13:06;16.88;;;11.32;;
45848;SDS011;31567;54.600;9.842;2023-12-14T19:16:45;15.88;;;11.23;;
45848;SDS011;31567;54.600;9.842;2023-12-14T19:20:25;13.65;;;10.13;;
45848;SDS011;31567;54.600;9.842;2023-12-14T19:24:04;14.18;;;10.90;;
45848;SDS011;31567;54.600;9.842;2023-12-14T19:27:44;15.13;;;11.55;;
45848;SDS011;31567;54.600;9.842;2023-12-14T19:31:31;14.90;;;10.68;;
45848;SDS011;31567;54.600;9.842;2023-12-14T19:35:10;12.10;;;10.07;;
45848;SDS011;31567;54.600;9.842;2023-12-14T19:38:50;16.92;;;10.93;;
45848;SDS011;31567;54.600;9.842;2023-12-14T19:42:32;16.00;;;10.98;;
45848;SDS011;31567;54.600;9.842;2023-12-14T19:46:12;14.38;;;11.50;;
45848;SDS011;31567;54.600;9.842;2023-12-14T19:49:53;17.10;;;10.48;;
45848;SDS011;31567;54.600;9.842;2023-12-14T19:53:36;14.75;;;10.43;;
45848;SDS011;31567;54.600;9.842;2023-12-14T19:57:16;15.82;;;11.77;;
45848;SDS011;31567;54.600;9.842;2023-12-14T20:00:55;16.15;;;11.50;;
45848;SDS011;31567;54.600;9.842;2023-12-14T20:04:35;15.68;;;11.80;;
45848;SDS011;31567;54.600;9.842;2023-12-14T20:08:14;14.50;;;11.00;;
45848;SDS011;31567;54.600;9.842;2023-12-14T20:12:03;16.10;;;11.23;;
45848;SDS011;31567;54.600;9.842;2023-12-14T20:15:43;14.57;;;10.30;;
45848;SDS011;31567;54.600;9.842;2023-12-14T20:19:23;13.75;;;10.35;;
45848;SDS011;31567;54.600;9.842;2023-12-14T20:23:04;14.07;;;9.80;;
45848;SDS011;31567;54.600;9.842;2023-12-14T20:26:43;13.15;;;10.18;;
45848;SDS011;31567;54.600;9.842;2023-12-14T20:30:23;15.13;;;11.25;;
45848;SDS011;31567;54.600;9.842;2023-12-14T20:34:02;14.07;;;10.18;;
45848;SDS011;31567;54.600;9.842;2023-12-14T20:37:42;13.18;;;10.35;;
45848;SDS011;31567;54.600;9.842;2023-12-14T20:41:22;16.75;;;10.05;;
45848;SDS011;31567;54.600;9.842;2023-12-14T20:45:02;13.80;;;10.00;;
45848;SDS011;31567;54.600;9.842;2023-12-14T20:48:42;13.20;;;9.50;;
45848;SDS011;31567;54.600;9.842;2023-12-14T20:52:21;13.32;;;9.88;;
45848;SDS011;31567;54.600;9.842;2023-12-14T20:56:01;14.18;;;9.82;;
45848;SDS011;31567;54.600;9.842;2023-12-14T20:59:40;13.57;;;9.63;;
45848;SDS011;31567;54.600;9.842;2023-12-14T21:03:20;12.10;;;9.13;;
45848;SDS011;31567;54.600;9.842;2023-12-14T21:06:59;12.77;;;10.27;;
45848;SDS011;31567;54.600;9.842;2023-12-14T21:10:39;17.23;;;9.98;;
45848;SDS011;31567;54.600;9.842;2023-12-14T21:14:18;12.82;;;9.85;;
45848;SDS011;31567;54.600;9.842;2023-12-14T21:17:58;13.57;;;10.60;;
45848;SDS011;31567;54.600;9.842;2023-12-14T21:21:37;12.40;;;9.50;;
45848;SDS011;31567;54.600;9.842;2023-12-14T21:25:17;15.63;;;11.10;;
45848;SDS011;31567;54.600;9.842;2023-12-14T21:28:58;15.07;;;10.45;;
45848;SDS011;31567;54.600;9.842;2023-12-14T21:32:37;19.90;;;10.88;;
45848;SDS011;31567;54.600;9.842;2023-12-14T21:36:17;14.23;;;10.70;;
45848;SDS011;31567;54.600;9.842;2023-12-14T21:39:56;15.63;;;10.43;;
45848;SDS011;31567;54.600;9.842;2023-12-14T21:43:36;12.50;;;9.82;;
45848;SDS011;31567;54.600;9.842;2023-12-14T21:47:15;15.48;;;10.30;;
45848;SDS011;31567;54.600;9.842;2023-12-14T21:50:55;16.10;;;11.02;;
45848;SDS011;31567;54.600;9.842;2023-12-14T21:54:34;13.93;;;10.95;;
45848;SDS011;31567;54.600;9.842;2023-12-14T21:58:14;14.02;;;11.13;;
45848;SDS011;31567;54.600;9.842;2023-12-14T22:01:53;16.55;;;11.95;;
45848;SDS011;31567;54.600;9.842;2023-12-14T22:05:33;14.90;;;10.90;;
45848;SDS011;31567;54.600;9.842;2023-12-14T22:09:13;16.58;;;11.40;;
45848;SDS011;31567;54.600;9.842;2023-12-14T22:12:54;16.30;;;11.80;;